createdAt,value
2018-03-15T00:01:11.235Z,1.70
2018-03-15T00:03:41.600Z,2.10
2018-03-15T00:06:11.959Z,1.60
2018-03-15T00:08:43.361Z,1.43
2018-03-15T00:11:13.672Z,1.20
2018-03-15T00:13:44.007Z,1.70
2018-03-15T00:16:14.300Z,1.70
2018-03-15T00:18:44.580Z,1.80
2018-03-15T00:23:56.020Z,1.50
2018-03-15T00:26:27.100Z,1.80
2018-03-15T00:28:57.432Z,1.70
2018-03-15T00:31:28.512Z,1.80
2018-03-15T00:33:59.581Z,1.43
2018-03-15T00:36:30.001Z,1.60
2018-03-15T00:39:01.057Z,1.90
2018-03-15T00:41:31.377Z,2.13
2018-03-15T00:44:01.695Z,1.53
2018-03-15T00:46:31.972Z,1.77
2018-03-15T00:49:02.257Z,1.40
2018-03-15T00:51:32.559Z,1.53
2018-03-15T00:54:04.756Z,1.50
2018-03-15T00:56:35.145Z,1.70
2018-03-15T00:59:06.279Z,1.53
2018-03-15T01:01:36.763Z,1.50
2018-03-15T01:04:07.949Z,1.50
2018-03-15T01:06:38.320Z,1.53
2018-03-15T01:09:09.080Z,1.63
2018-03-15T01:11:40.020Z,1.70
2018-03-15T01:14:11.288Z,1.50
2018-03-15T01:16:41.597Z,1.47
2018-03-15T01:19:11.896Z,1.30
2018-03-15T01:21:42.452Z,1.37
2018-03-15T01:24:12.748Z,1.53
2018-03-15T01:26:43.036Z,1.33
2018-03-15T01:29:14.123Z,1.50
2018-03-15T01:31:44.465Z,1.80
2018-03-15T01:34:14.752Z,1.50
2018-03-15T01:36:45.048Z,1.30
2018-03-15T01:39:15.327Z,1.70
2018-03-15T01:41:45.632Z,1.13
2018-03-15T01:44:16.114Z,2.23
2018-03-15T01:46:46.383Z,1.80
2018-03-15T01:49:16.688Z,1.50
2018-03-15T01:51:47.736Z,1.50
2018-03-15T01:54:18.857Z,1.50
2018-03-15T01:56:49.232Z,1.60
2018-03-15T01:59:19.540Z,1.50
2018-03-15T02:01:49.824Z,1.50
2018-03-15T02:04:20.754Z,1.80
2018-03-15T02:06:51.048Z,1.40
2018-03-15T02:09:21.729Z,1.50
2018-03-15T02:11:52.007Z,1.70
2018-03-15T02:14:22.348Z,1.43
2018-03-15T02:16:52.652Z,2.07
2018-03-15T02:19:23.024Z,1.40
2018-03-15T02:21:53.360Z,1.27
2018-03-15T02:24:24.433Z,1.50
2018-03-15T02:26:54.703Z,1.60
2018-03-15T02:29:24.999Z,1.40
2018-03-15T02:31:55.312Z,1.40
2018-03-15T02:34:25.648Z,1.23
2018-03-15T02:36:55.944Z,1.40
2018-03-15T02:39:27.021Z,1.37
2018-03-15T02:41:57.345Z,1.30
2018-03-15T02:44:27.640Z,1.60
2018-03-15T02:46:57.988Z,1.30
2018-03-15T02:49:28.308Z,1.47
2018-03-15T02:51:58.690Z,1.30
2018-03-15T02:54:29.016Z,1.70
2018-03-15T02:56:59.288Z,1.50
2018-03-15T02:59:29.633Z,1.60
2018-03-15T03:01:59.955Z,1.30
2018-03-15T03:04:30.917Z,1.20
2018-03-15T03:07:01.216Z,1.37
2018-03-15T03:09:31.803Z,1.50
2018-03-15T03:12:02.849Z,1.50
2018-03-15T03:14:33.172Z,1.50
2018-03-15T03:17:04.238Z,1.43
2018-03-15T03:19:35.615Z,1.37
2018-03-15T03:22:05.936Z,1.13
2018-03-15T03:24:36.264Z,1.47
2018-03-15T03:27:06.549Z,1.30
2018-03-15T03:29:36.852Z,1.50
2018-03-15T03:32:07.928Z,1.80
2018-03-15T03:34:38.268Z,1.60
2018-03-15T03:37:09.116Z,1.40
2018-03-15T03:39:39.428Z,1.50
2018-03-15T03:42:09.756Z,1.60
2018-03-15T03:44:40.072Z,1.70
2018-03-15T03:47:10.404Z,1.40
2018-03-15T03:49:40.720Z,1.33
2018-03-15T03:52:11.248Z,1.50
2018-03-15T03:54:41.561Z,1.40
2018-03-15T03:57:11.812Z,1.30
2018-03-15T03:59:42.088Z,1.70
2018-03-15T04:02:13.136Z,1.50
2018-03-15T04:04:44.219Z,1.37
2018-03-15T04:07:17.072Z,1.43
2018-03-15T04:09:47.772Z,1.30
2018-03-15T04:12:18.071Z,1.40
2018-03-15T04:14:48.371Z,1.43
2018-03-15T04:17:18.652Z,1.57
2018-03-15T04:19:48.944Z,1.40
2018-03-15T04:22:19.247Z,1.33
2018-03-15T04:24:49.955Z,1.40
2018-03-15T04:27:20.240Z,1.40
2018-03-15T04:29:50.552Z,1.43
2018-03-15T04:32:20.832Z,1.60
2018-03-15T04:34:51.926Z,1.60
2018-03-15T04:37:22.212Z,1.50
2018-03-15T04:39:52.548Z,1.40
2018-03-15T04:42:22.913Z,1.40
2018-03-15T04:44:53.236Z,1.70
2018-03-15T04:47:23.504Z,1.70
2018-03-15T04:49:53.848Z,1.47
2018-03-15T04:52:24.147Z,1.50
2018-03-15T04:54:55.212Z,1.70
2018-03-15T04:57:25.508Z,1.40
2018-03-15T04:59:56.606Z,1.60
2018-03-15T05:02:27.720Z,1.50
2018-03-15T05:04:58.076Z,1.60
2018-03-15T05:07:28.404Z,1.40
2018-03-15T05:10:00.560Z,1.60
2018-03-15T05:12:30.868Z,1.60
2018-03-15T05:15:01.208Z,1.67
2018-03-15T05:17:31.749Z,1.40
2018-03-15T05:20:02.055Z,1.40
2018-03-15T05:22:32.384Z,1.80
2018-03-15T05:25:02.685Z,1.50
2018-03-15T05:27:33.029Z,1.77
2018-03-15T05:30:03.332Z,1.70
2018-03-15T05:32:33.625Z,1.47
2018-03-15T05:35:03.920Z,1.50
2018-03-15T05:37:34.218Z,1.47
2018-03-15T05:40:04.557Z,1.60
2018-03-15T05:42:34.896Z,1.50
2018-03-15T05:45:05.215Z,1.73
2018-03-15T05:47:35.476Z,1.57
2018-03-15T05:50:05.752Z,1.53
2018-03-15T05:52:36.020Z,1.57
2018-03-15T05:55:06.336Z,1.63
2018-03-15T05:57:36.648Z,1.37
2018-03-15T06:00:07.000Z,1.70
2018-03-15T06:02:37.272Z,1.60
2018-03-15T06:05:07.604Z,1.60
2018-03-15T06:07:38.292Z,1.80
2018-03-15T06:10:09.798Z,1.67
2018-03-15T06:12:40.076Z,1.43
2018-03-15T06:15:11.147Z,1.60
2018-03-15T06:17:41.431Z,1.43
2018-03-15T06:20:12.507Z,1.70
2018-03-15T06:22:42.799Z,1.60
2018-03-15T06:25:13.852Z,1.70
2018-03-15T06:27:44.896Z,1.70
2018-03-15T06:30:15.951Z,1.70
2018-03-15T06:32:46.208Z,1.50
2018-03-15T06:35:16.548Z,1.47
2018-03-15T06:37:46.890Z,1.70
2018-03-15T06:40:17.207Z,1.60
2018-03-15T06:42:47.501Z,1.80
2018-03-15T06:45:17.908Z,1.80
2018-03-15T06:47:48.179Z,1.50
2018-03-15T06:50:18.484Z,1.70
2018-03-15T06:52:48.788Z,1.77
2018-03-15T06:55:19.079Z,1.47
2018-03-15T06:57:50.148Z,1.57
2018-03-15T07:00:20.452Z,1.90
2018-03-15T07:02:51.517Z,1.57
2018-03-15T07:05:21.904Z,1.53
2018-03-15T07:07:52.285Z,1.80
2018-03-15T07:10:23.032Z,1.50
2018-03-15T07:12:53.320Z,2.00
2018-03-15T07:15:23.660Z,2.00
2018-03-15T07:17:53.945Z,1.50
2018-03-15T07:20:24.974Z,1.80
2018-03-15T07:22:55.341Z,1.53
2018-03-15T07:25:25.612Z,1.57
2018-03-15T07:27:55.904Z,1.93
2018-03-15T07:30:26.295Z,1.70
2018-03-15T07:32:57.363Z,1.50
2018-03-15T07:35:27.667Z,1.40
2018-03-15T07:37:58.699Z,1.63
2018-03-15T07:40:29.879Z,1.60
2018-03-15T07:43:00.153Z,1.70
2018-03-15T07:45:30.471Z,1.93
2018-03-15T07:48:00.744Z,1.80
2018-03-15T07:50:31.075Z,1.70
2018-03-15T07:53:01.367Z,1.63
2018-03-15T07:55:32.412Z,1.70
2018-03-15T07:58:04.164Z,1.60
2018-03-15T08:00:35.246Z,1.70
2018-03-15T08:03:05.540Z,1.50
2018-03-15T08:05:36.719Z,1.90
2018-03-15T08:08:06.971Z,1.67
2018-03-15T08:10:37.653Z,1.80
2018-03-15T08:13:07.988Z,1.80
2018-03-15T08:15:39.325Z,1.87
2018-03-15T08:18:10.382Z,1.63
2018-03-15T08:20:40.756Z,1.60
2018-03-15T08:23:11.864Z,1.87
2018-03-15T08:25:42.167Z,1.60
2018-03-15T08:28:12.584Z,1.73
2018-03-15T08:30:43.672Z,1.67
2018-03-15T08:33:13.992Z,1.40
2018-03-15T08:35:44.360Z,1.80
2018-03-15T08:38:14.656Z,1.73
2018-03-15T08:40:44.956Z,1.53
2018-03-15T08:43:15.272Z,1.60
2018-03-15T08:45:45.567Z,1.67
2018-03-15T08:48:16.624Z,1.67
2018-03-15T08:50:47.744Z,1.70
2018-03-15T08:53:18.088Z,1.60
2018-03-15T08:55:49.152Z,1.60
2018-03-15T08:58:20.268Z,1.50
2018-03-15T09:00:51.360Z,1.70
2018-03-15T09:03:21.640Z,1.70
2018-03-15T09:05:52.719Z,1.93
2018-03-15T09:08:23.019Z,1.77
2018-03-15T09:10:53.668Z,1.73
2018-03-15T09:13:23.952Z,1.73
2018-03-15T09:15:54.268Z,1.83
2018-03-15T09:18:24.564Z,1.70
2018-03-15T09:20:55.026Z,1.63
2018-03-15T09:23:25.352Z,1.40
2018-03-15T09:25:55.712Z,1.70
2018-03-15T09:28:25.990Z,1.87
2018-03-15T09:30:56.376Z,1.60
2018-03-15T09:33:26.704Z,1.83
2018-03-15T09:35:57.020Z,1.90
2018-03-15T09:38:27.648Z,1.87
2018-03-15T09:40:58.784Z,1.70
2018-03-15T09:43:29.137Z,1.60
2018-03-15T09:45:59.463Z,1.97
2018-03-15T09:48:29.800Z,1.80
2018-03-15T09:51:00.104Z,1.70
2018-03-15T09:53:31.844Z,2.10
2018-03-15T09:56:02.231Z,1.90
2018-03-15T09:58:33.300Z,1.60
2018-03-15T10:01:03.587Z,1.70
2018-03-15T10:03:34.700Z,1.80
2018-03-15T10:06:05.732Z,1.70
2018-03-15T10:08:36.861Z,1.80
2018-03-15T10:11:07.688Z,1.70
2018-03-15T10:13:38.124Z,1.73
2018-03-15T10:16:11.428Z,1.87
2018-03-15T10:18:46.431Z,2.20
2018-03-15T10:21:20.576Z,1.83
2018-03-15T10:23:53.482Z,2.30
2018-03-15T10:26:23.976Z,2.00
2018-03-15T10:28:54.326Z,2.00
2018-03-15T10:31:24.748Z,2.00
2018-03-15T10:33:56.672Z,2.03
2018-03-15T10:36:27.104Z,2.00
2018-03-15T10:38:58.208Z,1.77
2018-03-15T10:41:28.511Z,1.80
2018-03-15T10:43:58.864Z,2.20
2018-03-15T10:46:29.168Z,2.13
2018-03-15T10:48:59.532Z,2.00
2018-03-15T10:51:30.612Z,1.90
2018-03-15T10:54:00.916Z,2.00
2018-03-15T10:56:31.251Z,2.10
2018-03-15T10:59:01.541Z,2.00
2018-03-15T11:01:35.796Z,1.70
2018-03-15T11:04:10.274Z,2.20
2018-03-15T11:06:42.647Z,1.80
2018-03-15T11:09:15.400Z,2.07
2018-03-15T11:11:46.100Z,2.20
2018-03-15T11:14:16.449Z,1.93
2018-03-15T11:16:46.780Z,2.20
2018-03-15T11:19:17.105Z,2.03
2018-03-15T11:21:47.432Z,2.17
2018-03-15T11:24:17.736Z,1.90
2018-03-15T11:26:48.172Z,1.83
2018-03-15T11:29:18.480Z,2.20
2018-03-15T11:31:48.883Z,1.80
2018-03-15T11:34:19.980Z,1.90
2018-03-15T11:36:50.344Z,1.93
2018-03-15T11:39:21.424Z,2.03
2018-03-15T11:41:51.860Z,2.23
2018-03-15T11:44:22.189Z,2.13
2018-03-15T11:46:52.556Z,2.30
2018-03-15T11:49:23.636Z,2.10
2018-03-15T11:51:53.944Z,2.17
2018-03-15T11:54:24.303Z,2.10
2018-03-15T11:56:54.660Z,2.37
2018-03-15T11:59:25.045Z,1.80
2018-03-15T12:01:55.440Z,1.90
2018-03-15T12:04:26.520Z,2.23
2018-03-15T12:06:57.044Z,2.00
2018-03-15T12:09:27.429Z,1.97
2018-03-15T12:11:58.056Z,1.90
2018-03-15T12:14:28.611Z,2.10
2018-03-15T12:16:58.961Z,2.10
2018-03-15T12:19:30.460Z,1.93
2018-03-15T12:22:01.284Z,2.00
2018-03-15T12:24:31.581Z,2.20
2018-03-15T12:27:01.861Z,2.20
2018-03-15T12:29:32.136Z,2.20
2018-03-15T12:32:02.480Z,1.93
2018-03-15T12:34:32.812Z,2.13
2018-03-15T12:37:03.124Z,2.23
2018-03-15T12:39:33.448Z,2.20
2018-03-15T12:42:03.737Z,2.10
2018-03-15T12:44:34.808Z,2.40
2018-03-15T12:47:05.144Z,2.13
2018-03-15T12:49:35.626Z,2.23
2018-03-15T12:52:06.736Z,2.23
2018-03-15T12:54:37.044Z,2.10
2018-03-15T12:57:07.525Z,1.90
2018-03-15T12:59:38.588Z,2.30
2018-03-15T13:02:08.884Z,2.30
2018-03-15T13:04:39.948Z,2.07
2018-03-15T13:07:10.263Z,2.03
2018-03-15T13:09:41.331Z,2.33
2018-03-15T13:12:12.068Z,2.27
2018-03-15T13:14:42.340Z,2.17
2018-03-15T13:17:12.712Z,2.27
2018-03-15T13:19:43.004Z,2.67
2018-03-15T13:22:14.112Z,2.20
2018-03-15T13:24:44.460Z,2.20
2018-03-15T13:27:14.955Z,2.07
2018-03-15T13:29:45.217Z,2.07
2018-03-15T13:32:16.668Z,2.10
2018-03-15T13:34:47.896Z,2.13
2018-03-15T13:37:18.828Z,1.77
2018-03-15T13:39:49.312Z,2.20
2018-03-15T13:42:19.625Z,2.00
2018-03-15T13:44:49.926Z,2.20
2018-03-15T13:47:20.260Z,2.10
2018-03-15T13:49:51.347Z,2.13
2018-03-15T13:52:21.665Z,2.20
2018-03-15T13:54:52.786Z,2.00
2018-03-15T13:57:23.168Z,2.30
2018-03-15T13:59:55.276Z,2.70
2018-03-15T14:02:26.404Z,2.20
2018-03-15T14:04:57.470Z,2.30
2018-03-15T14:07:27.812Z,2.10
2018-03-15T14:09:58.196Z,2.60
2018-03-15T14:12:28.875Z,2.20
2018-03-15T14:14:59.152Z,2.00
2018-03-15T14:17:30.396Z,2.17
2018-03-15T14:20:00.693Z,2.47
2018-03-15T14:22:30.964Z,2.10
2018-03-15T14:25:02.942Z,2.53
2018-03-15T14:27:33.348Z,2.00
2018-03-15T14:30:05.464Z,2.57
2018-03-15T14:32:37.203Z,2.37
2018-03-15T14:35:07.572Z,2.47
2018-03-15T14:37:38.185Z,1.80
2018-03-15T14:40:08.456Z,2.20
2018-03-15T14:42:39.524Z,2.13
2018-03-15T14:45:09.824Z,2.07
2018-03-15T14:47:40.923Z,2.23
2018-03-15T14:50:11.240Z,2.43
2018-03-15T14:52:41.592Z,2.10
2018-03-15T14:55:11.879Z,2.47
2018-03-15T14:57:42.167Z,2.10
2018-03-15T15:00:13.221Z,2.13
2018-03-15T15:02:43.568Z,2.20
2018-03-15T15:05:13.892Z,1.87
2018-03-15T15:07:44.216Z,2.13
2018-03-15T15:10:14.531Z,1.83
2018-03-15T15:12:45.223Z,2.10
2018-03-15T15:15:16.804Z,1.90
2018-03-15T15:17:47.096Z,1.90
2018-03-15T15:20:17.368Z,2.13
2018-03-15T15:22:47.700Z,2.23
2018-03-15T15:25:17.993Z,2.17
2018-03-15T15:27:49.137Z,2.27
2018-03-15T15:30:20.234Z,2.40
2018-03-15T15:32:50.632Z,2.00
2018-03-15T15:35:20.908Z,2.20
2018-03-15T15:37:51.232Z,2.30
2018-03-15T15:40:21.534Z,1.87
2018-03-15T15:42:51.800Z,2.20
2018-03-15T15:45:22.960Z,1.87
2018-03-15T15:47:53.270Z,1.93
2018-03-15T15:50:24.341Z,1.80
2018-03-15T15:52:54.694Z,2.03
2018-03-15T15:55:25.023Z,1.87
2018-03-15T15:57:55.613Z,2.00
2018-03-15T16:00:25.925Z,2.20
2018-03-15T16:02:56.464Z,1.80
2018-03-15T16:05:26.852Z,2.30
2018-03-15T16:07:57.159Z,2.30
2018-03-15T16:10:27.643Z,2.10
2018-03-15T16:12:58.290Z,1.93
2018-03-15T16:15:28.700Z,1.90
2018-03-15T16:17:59.454Z,2.20
2018-03-15T16:20:29.801Z,2.20
2018-03-15T16:23:00.354Z,2.20
2018-03-15T16:25:31.373Z,1.83
2018-03-15T16:28:01.674Z,2.10
2018-03-15T16:30:32.077Z,2.30
2018-03-15T16:33:02.573Z,2.00
2018-03-15T16:35:32.900Z,2.30
2018-03-15T16:38:03.242Z,2.13
2018-03-15T16:40:34.477Z,2.20
2018-03-15T16:43:04.858Z,1.80
2018-03-15T16:45:35.177Z,2.00
2018-03-15T16:48:06.107Z,2.10
2018-03-15T16:50:36.420Z,2.20
2018-03-15T16:53:07.268Z,2.17
2018-03-15T16:55:37.775Z,2.20
2018-03-15T16:58:09.187Z,2.07
2018-03-15T17:00:39.713Z,1.93
2018-03-15T17:03:10.032Z,2.10
2018-03-15T17:05:47.218Z,1.70
2018-03-15T17:08:17.672Z,1.90
2018-03-15T17:10:48.225Z,2.33
2018-03-15T17:13:24.428Z,2.17
2018-03-15T17:15:54.713Z,2.00
2018-03-15T17:18:26.140Z,2.27
2018-03-15T17:20:56.461Z,2.00
2018-03-15T17:23:26.816Z,1.90
2018-03-15T17:25:57.178Z,2.20
2018-03-15T17:28:27.632Z,1.93
2018-03-15T17:30:58.848Z,1.83
2018-03-15T17:33:29.455Z,2.00
2018-03-15T17:36:00.176Z,1.97
2018-03-15T17:38:31.309Z,1.90
2018-03-15T17:41:03.273Z,1.60
2018-03-15T17:43:34.345Z,2.10
2018-03-15T17:46:04.640Z,1.97
2018-03-15T17:48:35.808Z,1.83
2018-03-15T17:51:06.271Z,1.80
2018-03-15T17:53:40.060Z,1.80
2018-03-15T17:56:10.779Z,2.13
2018-03-15T17:58:41.092Z,1.87
2018-03-15T18:01:11.368Z,2.40
2018-03-15T18:03:41.865Z,4.20
2018-03-15T18:06:12.304Z,3.10
2018-03-15T18:08:42.643Z,2.47
2018-03-15T18:11:12.944Z,2.60
2018-03-15T18:13:43.552Z,2.30
2018-03-15T18:16:13.891Z,2.53
2018-03-15T18:18:44.264Z,2.20
2018-03-15T18:21:14.699Z,2.00
2018-03-15T18:23:45.439Z,2.57
2018-03-15T18:26:15.847Z,2.33
2018-03-15T18:28:46.352Z,2.33
2018-03-15T18:31:16.836Z,2.30
2018-03-15T18:33:47.940Z,2.27
2018-03-15T18:36:18.293Z,2.60
2018-03-15T18:38:48.596Z,2.87
2018-03-15T18:41:18.956Z,2.10
2018-03-15T18:43:50.056Z,2.70
2018-03-15T18:46:20.411Z,2.23
2018-03-15T18:48:50.740Z,2.63
2018-03-15T18:51:21.445Z,2.60
2018-03-15T18:53:54.200Z,2.17
2018-03-15T18:56:24.614Z,2.10
2018-03-15T18:58:54.961Z,2.40
2018-03-15T19:01:25.353Z,2.90
2018-03-15T19:03:56.835Z,2.80
2018-03-15T19:06:27.884Z,2.50
2018-03-15T19:08:58.628Z,2.40
2018-03-15T19:11:29.060Z,2.60
2018-03-15T19:14:00.044Z,2.50
2018-03-15T19:16:31.449Z,2.30
2018-03-15T19:19:01.881Z,2.47
2018-03-15T19:21:32.167Z,2.97
2018-03-15T19:24:02.580Z,2.60
2018-03-15T19:26:32.896Z,2.53
2018-03-15T19:29:04.018Z,2.50
2018-03-15T19:31:34.474Z,2.73
2018-03-15T19:34:04.944Z,2.53
2018-03-15T19:36:35.467Z,4.30
2018-03-15T19:39:06.169Z,2.30
2018-03-15T19:41:36.616Z,2.53
2018-03-15T19:44:07.295Z,2.33
2018-03-15T19:46:37.556Z,2.30
2018-03-15T19:49:07.849Z,2.50
2018-03-15T19:51:38.203Z,2.37
2018-03-15T19:54:08.608Z,2.37
2018-03-15T19:56:39.112Z,3.00
2018-03-15T19:59:09.867Z,2.40
2018-03-15T20:01:40.556Z,2.57
2018-03-15T20:04:10.944Z,2.53
2018-03-15T20:06:42.056Z,2.23
2018-03-15T20:09:12.496Z,2.10
2018-03-15T20:11:42.811Z,2.13
2018-03-15T20:14:13.472Z,2.37
2018-03-15T20:19:21.887Z,2.40
2018-03-15T20:21:54.323Z,2.10
2018-03-15T20:24:33.015Z,2.10
2018-03-15T20:27:03.460Z,2.07
2018-03-15T20:29:33.944Z,1.90
2018-03-15T20:32:05.427Z,2.00
2018-03-15T20:34:35.824Z,2.00
2018-03-15T20:37:07.229Z,2.53
2018-03-15T20:39:42.444Z,2.30
2018-03-15T20:42:12.772Z,2.23
2018-03-15T20:44:43.276Z,2.23
2018-03-15T20:49:26.160Z,2.10
2018-03-15T20:51:56.564Z,2.50
2018-03-15T20:54:33.669Z,2.03
2018-03-15T20:57:04.083Z,1.97
2018-03-15T20:59:34.528Z,2.00
2018-03-15T21:02:04.862Z,2.03
2018-03-15T21:04:35.201Z,2.33
2018-03-15T21:07:05.541Z,1.70
2018-03-15T21:09:36.616Z,2.10
2018-03-15T21:12:06.939Z,2.07
2018-03-15T21:14:37.664Z,2.20
2018-03-15T21:17:08.041Z,2.20
2018-03-15T21:19:39.113Z,2.10
2018-03-15T21:22:10.216Z,2.70
2018-03-15T21:24:40.519Z,2.30
2018-03-15T21:27:10.897Z,2.03
2018-03-15T21:29:41.353Z,2.23
2018-03-15T21:32:11.665Z,2.27
2018-03-15T21:34:42.844Z,2.20
2018-03-15T21:37:13.156Z,2.50
2018-03-15T21:39:43.435Z,2.23
2018-03-15T21:42:13.775Z,2.50
2018-03-15T21:44:44.876Z,2.20
2018-03-15T21:47:15.172Z,2.70
2018-03-15T21:49:45.471Z,2.17
2018-03-15T21:52:16.553Z,2.20
2018-03-15T21:54:46.820Z,2.63
2018-03-15T21:57:17.115Z,2.40
2018-03-15T21:59:47.472Z,2.47
2018-03-15T22:02:17.805Z,2.30
2018-03-15T22:04:48.900Z,2.50
2018-03-15T22:07:19.488Z,2.47
2018-03-15T22:09:50.550Z,2.83
2018-03-15T22:12:20.836Z,2.13
2018-03-15T22:14:51.524Z,2.37
2018-03-15T22:17:21.813Z,2.47
2018-03-15T22:19:52.885Z,2.13
2018-03-15T22:22:23.189Z,2.13
2018-03-15T22:24:54.305Z,2.40
2018-03-15T22:27:24.596Z,2.27
2018-03-15T22:29:54.896Z,2.50
2018-03-15T22:32:25.256Z,2.30
2018-03-15T22:34:55.568Z,2.47
2018-03-15T22:37:25.896Z,2.50
2018-03-15T22:39:56.172Z,2.40
2018-03-15T22:42:27.300Z,2.27
2018-03-15T22:44:57.664Z,2.23
2018-03-15T22:47:28.050Z,2.37
2018-03-15T22:49:58.348Z,2.50
2018-03-15T22:52:28.724Z,2.37
2018-03-15T22:54:59.850Z,2.20
2018-03-15T22:57:30.208Z,2.10
2018-03-15T23:00:00.499Z,1.90
2018-03-15T23:02:31.572Z,2.10
2018-03-15T23:05:01.893Z,1.93
2018-03-15T23:07:32.268Z,2.00
2018-03-15T23:10:02.530Z,2.00
2018-03-15T23:12:33.575Z,2.33
2018-03-15T23:15:04.927Z,2.20
2018-03-15T23:17:35.260Z,2.00
2018-03-15T23:20:05.616Z,2.47
2018-03-15T23:22:36.021Z,2.10
2018-03-15T23:25:06.344Z,2.10
2018-03-15T23:27:36.680Z,2.03
2018-03-15T23:30:06.976Z,1.93
2018-03-15T23:32:38.056Z,2.10
2018-03-15T23:35:08.375Z,2.10
2018-03-15T23:37:38.692Z,1.93
2018-03-15T23:40:08.950Z,2.10
2018-03-15T23:42:39.305Z,1.90
2018-03-15T23:45:11.036Z,1.70
2018-03-15T23:47:41.315Z,2.07
2018-03-15T23:50:11.652Z,2.37
2018-03-15T23:52:41.999Z,1.90
2018-03-15T23:55:12.315Z,2.00
2018-03-15T23:57:42.881Z,1.77
